Time;durP1;ratioP1;P1;durP2;ratioP2;P2;SDS_P1;SDS_P2;PMS_P1;PMS_P2;Temp;Humidity;BMP_temperature;BMP_pressure;BME280_temperature;BME280_humidity;BME280_pressure;Samples;Min_cycle;Max_cycle;Signal;HPM_P1;HPM_P2
2021/10/30 00:00:40;;;;;;;1.37;0.77;;;;;;;;;;5089043;28;20024;-59
2021/10/30 00:03:07;;;;;;;3.33;1.13;;;;;;;;;;5089641;28;20475;-59
2021/10/30 00:05:34;;;;;;;4.33;1.10;;;;;;;;;;5094484;28;20024;-59
2021/10/30 00:08:01;;;;;;;6.83;1.80;;;;;;;;;;5094766;28;20024;-59
2021/10/30 00:10:29;;;;;;;7.80;1.30;;;;;;;;;;5094953;28;20097;-59
2021/10/30 00:12:56;;;;;;;4.27;1.50;;;;;;;;;;5094826;28;20036;-59
2021/10/30 00:15:23;;;;;;;12.90;1.50;;;;;;;;;;5093431;28;20088;-59
2021/10/30 00:17:49;;;;;;;3.07;1.20;;;;;;;;;;5089268;28;20032;-59
2021/10/30 00:20:16;;;;;;;3.47;1.37;;;;;;;;;;5089449;28;20051;-59
2021/10/30 00:22:42;;;;;;;7.07;1.53;;;;;;;;;;5089535;28;20535;-59
2021/10/30 00:25:09;;;;;;;8.17;2.20;;;;;;;;;;5089214;28;20096;-59
2021/10/30 00:27:37;;;;;;;3.13;1.40;;;;;;;;;;5094381;28;20086;-60
2021/10/30 00:30:04;;;;;;;4.53;1.90;;;;;;;;;;5094519;28;20024;-59
2021/10/30 00:32:31;;;;;;;6.10;2.57;;;;;;;;;;5094443;28;20386;-59
2021/10/30 00:34:57;;;;;;;15.00;3.00;;;;;;;;;;5094663;28;20028;-60
2021/10/30 00:37:25;;;;;;;8.30;1.97;;;;;;;;;;5093969;28;20097;-59
2021/10/30 00:39:52;;;;;;;3.90;1.63;;;;;;;;;;5089316;28;20039;-59
2021/10/30 00:42:19;;;;;;;8.00;1.80;;;;;;;;;;5089015;28;20482;-59
2021/10/30 00:44:45;;;;;;;4.63;1.80;;;;;;;;;;5089134;28;20099;-59
2021/10/30 00:47:14;;;;;;;10.07;2.10;;;;;;;;;;5088711;28;20020;-59
2021/10/30 00:49:43;;;;;;;7.53;2.47;;;;;;;;;;5093801;28;20028;-59
2021/10/30 00:52:10;;;;;;;7.33;2.20;;;;;;;;;;5094090;28;20081;-59
2021/10/30 00:54:37;;;;;;;4.13;1.93;;;;;;;;;;5093983;28;20040;-58
2021/10/30 00:57:05;;;;;;;4.10;1.80;;;;;;;;;;5093423;28;20028;-60
2021/10/30 00:59:32;;;;;;;4.33;1.60;;;;;;;;;;5093671;28;20035;-59
2021/10/30 01:01:58;;;;;;;4.70;1.60;;;;;;;;;;5088910;28;20024;-60
2021/10/30 01:04:25;;;;;;;6.87;2.20;;;;;;;;;;5088952;28;20012;-59
2021/10/30 01:06:53;;;;;;;7.50;2.30;;;;;;;;;;5088957;28;20095;-59
2021/10/30 01:09:21;;;;;;;8.77;3.47;;;;;;;;;;5088333;28;20027;-59
2021/10/30 01:11:48;;;;;;;5.93;1.63;;;;;;;;;;5092858;28;20481;-58
2021/10/30 01:14:15;;;;;;;2.33;1.17;;;;;;;;;;5093029;28;20475;-58
2021/10/30 01:16:41;;;;;;;4.70;1.63;;;;;;;;;;5093479;28;20060;-59
2021/10/30 01:19:08;;;;;;;13.70;2.30;;;;;;;;;;5093687;28;20107;-58
2021/10/30 01:21:36;;;;;;;4.70;1.90;;;;;;;;;;5093351;28;20024;-59
2021/10/30 01:24:04;;;;;;;4.43;2.07;;;;;;;;;;5089149;28;20047;-59
2021/10/30 01:26:31;;;;;;;7.23;3.57;;;;;;;;;;5088519;28;20023;-59
2021/10/30 01:29:00;;;;;;;6.63;2.93;;;;;;;;;;5087889;28;20031;-60
2021/10/30 01:31:27;;;;;;;8.60;2.70;;;;;;;;;;5088286;28;20036;-58
2021/10/30 01:33:53;;;;;;;6.70;2.83;;;;;;;;;;5091712;28;20039;-59
2021/10/30 01:36:22;;;;;;;7.93;3.33;;;;;;;;;;5093343;28;20478;-58
2021/10/30 01:38:50;;;;;;;10.53;4.37;;;;;;;;;;5093513;28;20492;-58
2021/10/30 01:41:17;;;;;;;9.90;4.37;;;;;;;;;;5093152;28;20079;-59
2021/10/30 01:43:44;;;;;;;6.80;3.27;;;;;;;;;;5092985;28;20036;-59
2021/10/30 01:46:11;;;;;;;6.93;3.40;;;;;;;;;;5088677;28;20042;-59
2021/10/30 01:48:39;;;;;;;11.43;4.30;;;;;;;;;;5088039;28;20254;-58
2021/10/30 01:51:07;;;;;;;12.87;4.20;;;;;;;;;;5087887;28;20039;-59
2021/10/30 01:53:35;;;;;;;6.10;3.40;;;;;;;;;;5087951;28;20077;-59
2021/10/30 01:56:02;;;;;;;6.57;3.93;;;;;;;;;;5091274;28;20379;-59
2021/10/30 01:58:29;;;;;;;12.50;4.60;;;;;;;;;;5092605;28;20020;-59
2021/10/30 02:00:57;;;;;;;8.90;4.70;;;;;;;;;;5092586;28;20028;-59
2021/10/30 02:03:24;;;;;;;8.23;4.37;;;;;;;;;;5092884;28;20077;-59
2021/10/30 02:05:52;;;;;;;8.93;4.33;;;;;;;;;;5092531;28;20028;-59
2021/10/30 02:08:20;;;;;;;8.00;4.40;;;;;;;;;;5089055;28;20043;-59
2021/10/30 02:10:47;;;;;;;8.37;4.03;;;;;;;;;;5087304;28;20565;-59
2021/10/30 02:13:14;;;;;;;11.17;5.00;;;;;;;;;;5087688;28;20483;-59
2021/10/30 02:15:41;;;;;;;10.37;6.03;;;;;;;;;;5069931;28;20056;-59
2021/10/30 02:18:09;;;;;;;10.67;4.37;;;;;;;;;;5090236;28;20036;-59
2021/10/30 02:20:36;;;;;;;9.67;5.13;;;;;;;;;;5092712;28;20031;-59
2021/10/30 02:23:02;;;;;;;8.17;4.40;;;;;;;;;;5092252;28;20023;-59
2021/10/30 02:25:29;;;;;;;6.63;3.63;;;;;;;;;;5091888;28;20017;-59
2021/10/30 02:27:56;;;;;;;8.37;3.20;;;;;;;;;;5092298;28;20424;-59
2021/10/30 02:30:23;;;;;;;8.10;3.20;;;;;;;;;;5088968;28;20035;-59
2021/10/30 02:32:50;;;;;;;8.30;3.37;;;;;;;;;;5087307;28;20016;-59
2021/10/30 02:35:17;;;;;;;8.70;3.73;;;;;;;;;;5086993;28;20039;-59
2021/10/30 02:37:44;;;;;;;10.63;5.47;;;;;;;;;;5087503;28;20475;-59
2021/10/30 02:40:11;;;;;;;12.00;5.83;;;;;;;;;;5089834;28;20036;-60
2021/10/30 02:42:38;;;;;;;12.73;4.83;;;;;;;;;;5092459;28;20028;-59
2021/10/30 02:45:05;;;;;;;10.33;3.90;;;;;;;;;;5092321;28;20084;-59
2021/10/30 02:47:32;;;;;;;6.33;2.90;;;;;;;;;;5092057;28;20111;-58
2021/10/30 02:49:59;;;;;;;19.53;3.27;;;;;;;;;;5091954;28;20095;-59
2021/10/30 02:52:26;;;;;;;6.73;2.40;;;;;;;;;;5089735;28;20179;-59
2021/10/30 02:54:54;;;;;;;5.87;3.10;;;;;;;;;;5087172;28;20043;-58
2021/10/30 02:57:20;;;;;;;7.60;2.77;;;;;;;;;;5086956;28;20036;-59
2021/10/30 02:59:47;;;;;;;6.37;3.33;;;;;;;;;;5087196;28;20024;-60
2021/10/30 03:02:14;;;;;;;10.20;3.97;;;;;;;;;;5089435;28;20028;-58
2021/10/30 03:04:41;;;;;;;10.07;4.20;;;;;;;;;;5092057;28;20547;-58
2021/10/30 03:07:07;;;;;;;9.10;4.03;;;;;;;;;;5091909;28;20363;-59
2021/10/30 03:09:34;;;;;;;10.57;3.23;;;;;;;;;;5091794;28;20103;-58
2021/10/30 03:12:01;;;;;;;7.70;3.67;;;;;;;;;;5092321;28;20055;-58
2021/10/30 03:14:28;;;;;;;8.60;3.20;;;;;;;;;;5089520;28;20032;-58
2021/10/30 03:16:54;;;;;;;10.80;3.83;;;;;;;;;;5086965;28;20032;-59
2021/10/30 03:19:21;;;;;;;5.63;2.67;;;;;;;;;;5087103;28;20025;-58
2021/10/30 03:21:48;;;;;;;5.37;2.60;;;;;;;;;;5087208;28;20016;-58
2021/10/30 03:24:17;;;;;;;7.03;2.43;;;;;;;;;;5088147;28;20387;-58
2021/10/30 03:26:43;;;;;;;10.00;4.00;;;;;;;;;;5091570;28;20035;-59
2021/10/30 03:29:10;;;;;;;5.87;2.57;;;;;;;;;;5091394;28;20039;-60
2021/10/30 03:31:37;;;;;;;6.80;2.20;;;;;;;;;;5091801;28;20055;-58
2021/10/30 03:34:04;;;;;;;5.77;2.20;;;;;;;;;;5091861;28;20039;-58
2021/10/30 03:36:32;;;;;;;7.20;1.77;;;;;;;;;;5092653;28;20020;-59
2021/10/30 03:38:58;;;;;;;3.97;1.77;;;;;;;;;;5088823;28;20071;-58
2021/10/30 03:41:25;;;;;;;11.77;2.83;;;;;;;;;;5090624;28;20024;-59
2021/10/30 03:43:53;;;;;;;4.97;2.43;;;;;;;;;;5090020;28;20675;-58
2021/10/30 03:46:22;;;;;;;8.73;2.53;;;;;;;;;;5091724;28;20028;-58
2021/10/30 03:48:49;;;;;;;9.00;4.43;;;;;;;;;;5094797;28;20032;-58
2021/10/30 03:51:16;;;;;;;7.10;3.00;;;;;;;;;;5095306;28;20093;-58
2021/10/30 03:53:43;;;;;;;6.37;3.30;;;;;;;;;;5094816;28;20433;-58
2021/10/30 03:56:14;;;;;;;11.30;3.90;;;;;;;;;;5095149;28;20024;-58
2021/10/30 03:58:41;;;;;;;7.47;3.57;;;;;;;;;;5075283;28;20082;-59
2021/10/30 04:01:08;;;;;;;7.83;3.80;;;;;;;;;;5089618;28;20422;-59
2021/10/30 04:03:35;;;;;;;11.63;4.57;;;;;;;;;;5089906;28;20028;-58
2021/10/30 04:06:02;;;;;;;12.93;3.80;;;;;;;;;;5089877;28;20061;-59
2021/10/30 04:08:28;;;;;;;9.10;3.63;;;;;;;;;;5090910;28;20042;-58
2021/10/30 04:10:55;;;;;;;9.33;4.70;;;;;;;;;;5094382;28;20054;-58
2021/10/30 04:13:23;;;;;;;13.03;4.13;;;;;;;;;;5098708;28;20043;-58
2021/10/30 04:15:50;;;;;;;10.20;3.67;;;;;;;;;;5100889;28;20027;-59
2021/10/30 04:18:17;;;;;;;11.10;3.20;;;;;;;;;;5100928;28;20035;-59
2021/10/30 04:20:43;;;;;;;6.27;3.40;;;;;;;;;;5094548;28;20024;-59
2021/10/30 04:23:10;;;;;;;7.37;3.27;;;;;;;;;;5110002;28;20015;-59
2021/10/30 04:25:37;;;;;;;5.87;3.30;;;;;;;;;;5110159;28;20042;-58
2021/10/30 04:28:04;;;;;;;7.13;3.17;;;;;;;;;;5109391;28;20074;-59
2021/10/30 04:30:32;;;;;;;7.80;3.03;;;;;;;;;;5101323;28;20116;-59
2021/10/30 04:32:59;;;;;;;5.57;2.93;;;;;;;;;;5094540;28;20024;-59
2021/10/30 04:35:26;;;;;;;7.77;3.30;;;;;;;;;;5094593;28;20026;-59
2021/10/30 04:37:53;;;;;;;5.63;2.63;;;;;;;;;;5093997;28;20473;-60
2021/10/30 04:40:20;;;;;;;8.07;2.50;;;;;;;;;;5094161;28;20020;-59
2021/10/30 04:42:48;;;;;;;6.63;2.03;;;;;;;;;;5093413;28;20028;-59
2021/10/30 04:45:15;;;;;;;4.57;1.77;;;;;;;;;;5089039;28;20035;-59
2021/10/30 04:47:42;;;;;;;10.50;2.10;;;;;;;;;;5088604;28;20112;-60
2021/10/30 04:50:10;;;;;;;5.60;1.50;;;;;;;;;;5089407;28;20032;-59
2021/10/30 04:52:37;;;;;;;8.37;1.97;;;;;;;;;;5089236;28;20020;-59
2021/10/30 04:55:05;;;;;;;4.00;1.60;;;;;;;;;;5093800;28;20548;-59
2021/10/30 04:57:32;;;;;;;6.53;1.80;;;;;;;;;;5093794;28;20047;-59
2021/10/30 04:59:59;;;;;;;4.63;1.90;;;;;;;;;;5093771;28;20042;-59
2021/10/30 05:02:26;;;;;;;4.17;1.80;;;;;;;;;;5094225;28;20098;-59
2021/10/30 05:04:53;;;;;;;4.33;1.40;;;;;;;;;;5093608;28;20039;-59
2021/10/30 05:07:19;;;;;;;6.70;1.60;;;;;;;;;;5088525;28;20027;-59
2021/10/30 05:09:46;;;;;;;2.87;1.47;;;;;;;;;;5088756;28;20412;-59
2021/10/30 05:12:13;;;;;;;4.90;1.37;;;;;;;;;;5088894;28;20121;-59
2021/10/30 05:14:40;;;;;;;6.50;1.60;;;;;;;;;;5088571;28;20084;-59
2021/10/30 05:17:06;;;;;;;3.67;1.40;;;;;;;;;;5092827;28;20078;-59
2021/10/30 05:19:33;;;;;;;5.97;1.73;;;;;;;;;;5093567;28;20020;-59
2021/10/30 05:22:00;;;;;;;7.20;1.87;;;;;;;;;;5093756;28;20024;-58
2021/10/30 05:24:27;;;;;;;5.13;2.20;;;;;;;;;;5093713;28;20475;-59
2021/10/30 05:26:54;;;;;;;6.43;1.57;;;;;;;;;;5093334;28;20394;-58
2021/10/30 05:29:20;;;;;;;4.70;1.47;;;;;;;;;;5088236;28;20028;-59
2021/10/30 05:31:47;;;;;;;5.73;2.30;;;;;;;;;;5088135;28;20107;-58
2021/10/30 05:34:14;;;;;;;5.57;2.67;;;;;;;;;;5087880;28;20550;-59
2021/10/30 05:36:41;;;;;;;8.67;2.80;;;;;;;;;;5088326;28;20096;-59
2021/10/30 05:39:16;;;;;;;9.57;2.20;;;;;;;;;;5092364;28;20016;-58
2021/10/30 05:41:44;;;;;;;7.63;2.40;;;;;;;;;;5092808;28;20036;-58
2021/10/30 05:44:11;;;;;;;5.73;2.10;;;;;;;;;;5093240;28;20032;-58
2021/10/30 05:46:38;;;;;;;14.93;3.20;;;;;;;;;;5093032;28;20059;-58
2021/10/30 05:49:06;;;;;;;6.43;1.93;;;;;;;;;;5092429;28;20027;-60
2021/10/30 05:51:34;;;;;;;6.97;2.30;;;;;;;;;;5088237;28;20024;-59
2021/10/30 05:54:02;;;;;;;6.73;2.30;;;;;;;;;;5087580;28;20256;-59
2021/10/30 05:56:28;;;;;;;3.20;1.70;;;;;;;;;;5087872;28;20471;-59
2021/10/30 05:58:55;;;;;;;7.30;2.30;;;;;;;;;;5086943;28;20028;-58
2021/10/30 06:01:22;;;;;;;6.23;2.50;;;;;;;;;;5092059;28;20081;-60
2021/10/30 06:03:49;;;;;;;4.37;2.00;;;;;;;;;;5092555;28;20418;-58
2021/10/30 06:06:16;;;;;;;8.73;2.03;;;;;;;;;;5092351;28;20379;-58
2021/10/30 06:08:43;;;;;;;4.77;1.93;;;;;;;;;;5092762;28;20044;-58
2021/10/30 06:11:10;;;;;;;8.77;2.73;;;;;;;;;;5092683;28;20065;-58
2021/10/30 06:13:37;;;;;;;6.07;1.83;;;;;;;;;;5088114;28;20507;-59
2021/10/30 06:16:04;;;;;;;6.07;1.87;;;;;;;;;;5087682;28;20382;-58
2021/10/30 06:18:31;;;;;;;8.07;1.80;;;;;;;;;;5087041;28;20161;-59
2021/10/30 06:20:57;;;;;;;4.50;1.47;;;;;;;;;;5087203;28;20099;-58
2021/10/30 06:23:24;;;;;;;5.07;1.77;;;;;;;;;;5091003;28;20020;-58
2021/10/30 06:25:51;;;;;;;6.57;2.17;;;;;;;;;;5092671;28;20028;-58
2021/10/30 06:28:18;;;;;;;5.20;1.77;;;;;;;;;;5092505;28;20038;-59
2021/10/30 06:30:46;;;;;;;5.37;2.07;;;;;;;;;;5092352;28;20027;-59
2021/10/30 06:33:13;;;;;;;4.20;2.00;;;;;;;;;;5092385;28;20383;-58
2021/10/30 06:35:40;;;;;;;7.17;2.00;;;;;;;;;;5088295;28;20028;-59
2021/10/30 06:38:07;;;;;;;5.63;2.83;;;;;;;;;;5087294;28;20021;-58
2021/10/30 06:40:34;;;;;;;4.20;2.23;;;;;;;;;;5087134;28;20032;-58
2021/10/30 06:43:01;;;;;;;7.17;2.33;;;;;;;;;;5087010;28;20483;-59
2021/10/30 06:45:28;;;;;;;6.73;2.20;;;;;;;;;;5090781;28;20032;-58
2021/10/30 06:47:55;;;;;;;4.60;2.00;;;;;;;;;;5092226;28;20078;-59
2021/10/30 06:50:22;;;;;;;5.80;2.00;;;;;;;;;;5092814;28;20355;-58
2021/10/30 06:52:51;;;;;;;6.13;1.97;;;;;;;;;;5091779;28;20085;-58
2021/10/30 06:55:18;;;;;;;7.13;2.63;;;;;;;;;;5091977;28;20355;-59
2021/10/30 06:57:45;;;;;;;4.30;2.20;;;;;;;;;;5088531;28;20081;-58
2021/10/30 07:00:12;;;;;;;7.20;2.03;;;;;;;;;;5087068;28;20494;-58
2021/10/30 07:02:40;;;;;;;4.00;1.87;;;;;;;;;;5087351;28;20103;-59
2021/10/30 07:05:08;;;;;;;3.00;1.67;;;;;;;;;;5087160;28;20036;-58
2021/10/30 07:07:35;;;;;;;6.30;2.47;;;;;;;;;;5089558;28;20181;-59
2021/10/30 07:10:02;;;;;;;5.20;2.17;;;;;;;;;;5092299;28;20471;-58
2021/10/30 07:12:29;;;;;;;7.40;2.47;;;;;;;;;;5096270;28;20027;-58
2021/10/30 07:14:56;;;;;;;8.67;2.47;;;;;;;;;;5095769;28;20028;-58
2021/10/30 07:17:23;;;;;;;5.73;2.50;;;;;;;;;;5095612;28;20031;-61
2021/10/30 07:19:50;;;;;;;3.23;1.80;;;;;;;;;;5092684;28;20051;-60
2021/10/30 07:22:17;;;;;;;5.47;2.00;;;;;;;;;;5090907;28;20056;-59
2021/10/30 07:24:44;;;;;;;6.50;2.00;;;;;;;;;;5090365;28;20097;-59
2021/10/30 07:27:12;;;;;;;8.03;2.23;;;;;;;;;;5090853;28;20016;-59
2021/10/30 07:29:39;;;;;;;6.70;2.53;;;;;;;;;;5092830;28;20127;-59
2021/10/30 07:32:06;;;;;;;5.73;1.93;;;;;;;;;;5095288;28;20393;-60
2021/10/30 07:34:33;;;;;;;4.30;1.77;;;;;;;;;;5095613;28;20382;-58
2021/10/30 07:36:59;;;;;;;5.57;1.73;;;;;;;;;;5095668;28;20505;-60
2021/10/30 07:39:26;;;;;;;4.97;1.57;;;;;;;;;;5095667;28;20024;-58
2021/10/30 07:41:53;;;;;;;7.07;1.90;;;;;;;;;;5092494;28;20032;-58
2021/10/30 07:44:19;;;;;;;3.63;2.33;;;;;;;;;;5090578;28;20029;-59
2021/10/30 07:46:46;;;;;;;4.13;1.70;;;;;;;;;;5090437;28;20375;-58
2021/10/30 07:49:13;;;;;;;7.67;2.03;;;;;;;;;;5090277;28;20534;-59
2021/10/30 07:51:40;;;;;;;6.17;1.80;;;;;;;;;;5092610;28;20055;-58
2021/10/30 07:54:07;;;;;;;4.23;2.00;;;;;;;;;;5094954;28;20032;-59
2021/10/30 07:56:34;;;;;;;4.70;1.40;;;;;;;;;;5095008;28;20054;-58
2021/10/30 07:59:01;;;;;;;2.83;1.30;;;;;;;;;;5095408;28;20071;-58
2021/10/30 08:01:28;;;;;;;5.10;1.60;;;;;;;;;;5095096;28;20027;-58
2021/10/30 08:03:54;;;;;;;2.93;1.70;;;;;;;;;;5093056;28;20028;-59
2021/10/30 08:06:21;;;;;;;3.53;1.60;;;;;;;;;;5089371;28;20356;-58
2021/10/30 08:08:48;;;;;;;5.47;1.70;;;;;;;;;;5090088;28;20031;-58
2021/10/30 08:11:15;;;;;;;7.13;1.70;;;;;;;;;;5090109;28;20096;-59
2021/10/30 08:13:42;;;;;;;5.63;1.77;;;;;;;;;;5091000;28;20036;-58
2021/10/30 08:16:08;;;;;;;8.33;2.23;;;;;;;;;;5094887;28;20023;-58
2021/10/30 08:18:35;;;;;;;6.80;1.80;;;;;;;;;;5094526;28;20110;-58
2021/10/30 08:21:03;;;;;;;5.30;2.20;;;;;;;;;;5094802;28;20024;-58
2021/10/30 08:23:29;;;;;;;10.87;2.70;;;;;;;;;;5093566;28;20012;-58
2021/10/30 08:25:56;;;;;;;8.87;2.30;;;;;;;;;;5093001;28;20031;-58
2021/10/30 08:28:24;;;;;;;6.67;1.93;;;;;;;;;;5089338;28;20043;-59
2021/10/30 08:30:50;;;;;;;5.57;2.07;;;;;;;;;;5089004;28;20034;-58
2021/10/30 08:33:17;;;;;;;5.57;1.70;;;;;;;;;;5089640;28;20055;-59
2021/10/30 08:35:44;;;;;;;3.63;1.90;;;;;;;;;;5090633;28;20428;-58
2021/10/30 08:38:11;;;;;;;4.73;1.90;;;;;;;;;;5094183;28;20089;-58
2021/10/30 08:40:44;;;;;;;3.93;2.00;;;;;;;;;;5094110;28;20016;-58
2021/10/30 08:43:17;;;;;;;3.63;2.00;;;;;;;;;;5094472;28;20016;-58
2021/10/30 08:45:44;;;;;;;3.90;1.70;;;;;;;;;;5094279;28;20024;-59
2021/10/30 08:48:11;;;;;;;4.53;1.93;;;;;;;;;;5091937;28;20535;-58
2021/10/30 08:50:38;;;;;;;4.77;2.10;;;;;;;;;;5089210;28;20054;-58
2021/10/30 08:53:05;;;;;;;7.97;2.70;;;;;;;;;;5089176;28;20476;-59
2021/10/30 08:55:32;;;;;;;3.43;1.73;;;;;;;;;;5088996;28;20023;-58
2021/10/30 08:58:09;;;;;;;8.57;1.80;;;;;;;;;;5089773;28;20024;-58
2021/10/30 09:00:44;;;;;;;4.80;1.87;;;;;;;;;;5093755;28;20036;-58
2021/10/30 09:03:12;;;;;;;;;;;;;;;;;;5094558;28;20544;-58
2021/10/30 09:05:42;;;;;;;5.40;1.60;;;;;;;;;;5094032;28;19911;-58
2021/10/30 09:08:09;;;;;;;4.03;1.70;;;;;;;;;;5093717;28;20073;-58
2021/10/30 09:10:39;;;;;;;6.23;2.13;;;;;;;;;;5091070;28;20028;-59
2021/10/30 09:13:10;;;;;;;6.53;2.40;;;;;;;;;;5088259;28;20034;-58
2021/10/30 09:15:38;;;;;;;3.50;1.77;;;;;;;;;;5088608;28;20032;-59
2021/10/30 09:18:20;;;;;;;4.57;2.10;;;;;;;;;;5088629;28;20036;-58
2021/10/30 09:20:48;;;;;;;6.60;1.90;;;;;;;;;;5090690;28;20372;-58
2021/10/30 09:23:16;;;;;;;3.37;1.87;;;;;;;;;;5093461;28;20020;-58
2021/10/30 09:25:55;;;;;;;5.07;2.00;;;;;;;;;;5093286;28;20549;-59
2021/10/30 09:28:23;;;;;;;7.47;2.17;;;;;;;;;;5093413;28;20024;-59
2021/10/30 09:30:56;;;;;;;5.90;2.50;;;;;;;;;;5092878;28;20104;-58
2021/10/30 09:33:23;;;;;;;6.20;2.57;;;;;;;;;;5089925;28;20059;-58
2021/10/30 09:35:51;;;;;;;5.53;2.70;;;;;;;;;;5087866;28;20635;-59
2021/10/30 09:38:30;;;;;;;8.53;2.73;;;;;;;;;;5088435;28;20036;-59
2021/10/30 09:40:57;;;;;;;8.90;3.90;;;;;;;;;;5088268;28;20423;-58
2021/10/30 09:43:24;;;;;;;9.83;4.20;;;;;;;;;;5090758;28;20020;-58
2021/10/30 09:45:52;;;;;;;7.63;4.13;;;;;;;;;;5093315;28;20027;-58
2021/10/30 09:48:24;;;;;;;8.03;3.80;;;;;;;;;;5092595;28;20031;-58
2021/10/30 09:50:52;;;;;;;9.37;3.60;;;;;;;;;;5092944;28;20058;-58
2021/10/30 09:53:47;;;;;;;9.90;3.20;;;;;;;;;;5093116;28;20027;-58
2021/10/30 09:56:15;;;;;;;6.10;3.50;;;;;;;;;;5079161;28;20031;-58
2021/10/30 09:58:43;;;;;;;4.87;3.33;;;;;;;;;;5087998;28;20052;-58
2021/10/30 10:01:13;;;;;;;8.93;3.63;;;;;;;;;;5087982;28;20099;-59
2021/10/30 10:03:42;;;;;;;9.07;3.73;;;;;;;;;;5088020;28;20371;-58
2021/10/30 10:06:10;;;;;;;11.93;4.90;;;;;;;;;;5091869;28;20467;-58
2021/10/30 10:08:40;;;;;;;8.37;3.50;;;;;;;;;;5092628;28;20475;-58
2021/10/30 10:11:08;;;;;;;6.43;3.80;;;;;;;;;;5092318;28;20118;-58
2021/10/30 10:13:37;;;;;;;6.37;3.40;;;;;;;;;;5092486;28;20039;-58
2021/10/30 10:16:04;;;;;;;12.63;3.90;;;;;;;;;;5092571;28;20123;-58
2021/10/30 10:18:33;;;;;;;7.73;3.37;;;;;;;;;;5087805;28;20035;-58
2021/10/30 10:21:00;;;;;;;6.67;2.73;;;;;;;;;;5087534;28;20020;-58
2021/10/30 10:23:27;;;;;;;7.83;2.60;;;;;;;;;;5087411;28;20036;-58
2021/10/30 10:25:56;;;;;;;6.00;2.90;;;;;;;;;;5087242;28;20036;-58
2021/10/30 10:28:23;;;;;;;12.13;3.37;;;;;;;;;;5091560;28;20378;-58
2021/10/30 10:31:00;;;;;;;12.23;3.97;;;;;;;;;;5091862;28;20475;-58
2021/10/30 10:33:28;;;;;;;6.60;3.37;;;;;;;;;;5092505;28;20035;-58
2021/10/30 10:36:27;;;;;;;4.90;2.93;;;;;;;;;;5092622;28;20379;-58
2021/10/30 10:38:56;;;;;;;4.20;2.27;;;;;;;;;;5068676;28;20054;-59
2021/10/30 10:41:39;;;;;;;9.13;3.27;;;;;;;;;;5087542;28;20042;-58
2021/10/30 10:44:09;;;;;;;23.40;10.97;;;;;;;;;;5086804;28;20032;-58
2021/10/30 10:46:40;;;;;;;40.23;19.63;;;;;;;;;;5090356;28;20024;-58
2021/10/30 10:49:48;;;;;;;22.73;10.90;;;;;;;;;;5092347;28;20020;-58
2021/10/30 10:52:20;;;;;;;24.33;11.97;;;;;;;;;;5076575;28;20540;-58
2021/10/30 10:54:53;;;;;;;17.37;7.93;;;;;;;;;;5095938;28;20036;-59
2021/10/30 10:57:23;;;;;;;11.50;6.37;;;;;;;;;;5096377;28;20421;-58
2021/10/30 11:00:07;;;;;;;10.37;5.17;;;;;;;;;;5096504;28;20118;-57
2021/10/30 11:02:35;;;;;;;9.53;4.37;;;;;;;;;;5092648;28;20024;-58
2021/10/30 11:05:10;;;;;;;6.00;3.37;;;;;;;;;;5091337;28;20117;-58
2021/10/30 11:07:38;;;;;;;7.67;3.43;;;;;;;;;;5090821;28;20499;-58
2021/10/30 11:10:08;;;;;;;6.20;2.80;;;;;;;;;;5091238;28;20028;-58
2021/10/30 11:12:35;;;;;;;11.20;2.97;;;;;;;;;;5094287;28;20024;-58
2021/10/30 11:15:08;;;;;;;6.07;2.93;;;;;;;;;;5096284;28;20036;-58
2021/10/30 11:17:48;;;;;;;5.93;3.10;;;;;;;;;;5095682;28;20035;-58
2021/10/30 11:20:17;;;;;;;6.47;2.53;;;;;;;;;;5095879;28;20032;-57
2021/10/30 11:22:59;;;;;;;4.37;2.47;;;;;;;;;;5095570;28;20012;-58
2021/10/30 11:25:27;;;;;;;4.73;2.57;;;;;;;;;;5090544;28;20493;-58
2021/10/30 11:27:54;;;;;;;6.23;2.77;;;;;;;;;;5091078;28;20080;-58
2021/10/30 11:30:31;;;;;;;4.40;2.43;;;;;;;;;;5090535;28;20137;-58
2021/10/30 11:33:16;;;;;;;4.60;2.03;;;;;;;;;;5090149;28;20500;-59
2021/10/30 11:36:00;;;;;;;4.40;2.00;;;;;;;;;;5095216;28;20061;-58
2021/10/30 11:38:30;;;;;;;8.87;3.33;;;;;;;;;;5095671;28;20028;-58
2021/10/30 11:40:58;;;;;;;9.40;2.80;;;;;;;;;;5095342;28;20489;-57
2021/10/30 11:43:26;;;;;;;4.97;2.30;;;;;;;;;;5095713;28;20809;-58
2021/10/30 11:45:54;;;;;;;4.50;2.27;;;;;;;;;;5094363;28;20475;-58
2021/10/30 11:48:22;;;;;;;4.23;2.37;;;;;;;;;;5090021;28;20032;-58
2021/10/30 11:50:56;;;;;;;5.13;2.10;;;;;;;;;;5090308;28;20489;-58
2021/10/30 11:53:29;;;;;;;4.80;2.03;;;;;;;;;;5089715;28;20043;-58
2021/10/30 11:56:05;;;;;;;4.70;2.17;;;;;;;;;;5091213;28;20028;-58
2021/10/30 11:58:35;;;;;;;4.53;1.80;;;;;;;;;;5094909;28;20036;-57
2021/10/30 12:01:17;;;;;;;4.03;1.90;;;;;;;;;;5095130;28;20028;-57
2021/10/30 12:03:44;;;;;;;8.50;2.17;;;;;;;;;;5094890;28;20032;-57
2021/10/30 12:06:10;;;;;;;10.73;2.23;;;;;;;;;;5095456;28;20023;-58
2021/10/30 12:08:37;;;;;;;4.57;2.73;;;;;;;;;;5092886;28;20032;-58
2021/10/30 12:11:08;;;;;;;5.27;1.97;;;;;;;;;;5089713;28;20071;-58
2021/10/30 12:13:36;;;;;;;4.03;1.90;;;;;;;;;;5089621;28;20028;-58
2021/10/30 12:16:03;;;;;;;3.10;1.80;;;;;;;;;;5089516;28;20438;-57
2021/10/30 12:18:31;;;;;;;5.10;2.20;;;;;;;;;;5091607;28;20028;-57
2021/10/30 12:20:58;;;;;;;9.67;2.63;;;;;;;;;;5094736;28;20028;-59
2021/10/30 12:23:26;;;;;;;6.17;3.10;;;;;;;;;;5094733;28;20024;-58
2021/10/30 12:26:22;;;;;;;5.10;2.33;;;;;;;;;;5094390;28;20031;-57
2021/10/30 12:28:49;;;;;;;7.73;2.30;;;;;;;;;;5086033;28;20043;-58
2021/10/30 12:31:26;;;;;;;4.90;2.23;;;;;;;;;;5091507;28;20043;-59
2021/10/30 12:33:53;;;;;;;10.27;2.40;;;;;;;;;;5089077;28;20303;-58
2021/10/30 12:36:20;;;;;;;7.63;2.40;;;;;;;;;;5089537;28;20268;-58
2021/10/30 12:38:53;;;;;;;6.17;2.17;;;;;;;;;;5089111;28;20028;-57
2021/10/30 12:41:20;;;;;;;4.17;2.30;;;;;;;;;;5092395;28;20357;-58
2021/10/30 12:43:48;;;;;;;8.57;2.47;;;;;;;;;;5094455;28;20471;-58
2021/10/30 12:46:15;;;;;;;4.67;2.10;;;;;;;;;;5094134;28;20268;-57
2021/10/30 12:48:43;;;;;;;5.20;2.30;;;;;;;;;;5094391;28;20265;-57
2021/10/30 12:51:13;;;;;;;13.57;3.40;;;;;;;;;;5094128;28;20030;-57
2021/10/30 12:53:40;;;;;;;7.23;2.37;;;;;;;;;;5090597;28;20635;-58
2021/10/30 12:56:09;;;;;;;6.70;2.90;;;;;;;;;;5088707;28;20265;-58
2021/10/30 12:58:47;;;;;;;7.97;2.90;;;;;;;;;;5089087;28;20252;-57
2021/10/30 13:01:20;;;;;;;8.90;2.93;;;;;;;;;;5088620;28;20272;-57
2021/10/30 13:03:51;;;;;;;7.43;3.90;;;;;;;;;;5091993;28;20054;-58
2021/10/30 13:06:20;;;;;;;5.73;3.63;;;;;;;;;;5094045;28;21024;-58
2021/10/30 13:08:53;;;;;;;8.63;3.80;;;;;;;;;;5093183;28;20546;-57
2021/10/30 13:11:21;;;;;;;7.73;3.17;;;;;;;;;;5093670;28;20758;-57
2021/10/30 13:13:49;;;;;;;5.67;2.97;;;;;;;;;;5093491;28;20643;-57
2021/10/30 13:16:16;;;;;;;7.30;3.03;;;;;;;;;;5088567;28;20665;-58
2021/10/30 13:18:43;;;;;;;6.93;3.43;;;;;;;;;;5088611;28;20107;-58
2021/10/30 13:21:17;;;;;;;8.63;3.43;;;;;;;;;;5088605;28;20028;-58
2021/10/30 13:23:45;;;;;;;6.10;3.17;;;;;;;;;;5088758;28;20112;-57
2021/10/30 13:26:13;;;;;;;10.90;3.70;;;;;;;;;;5092453;28;20095;-57
2021/10/30 13:28:43;;;;;;;8.77;3.83;;;;;;;;;;5093338;28;20514;-57
2021/10/30 13:31:10;;;;;;;8.87;4.27;;;;;;;;;;5093073;28;20019;-57
2021/10/30 13:33:37;;;;;;;7.30;4.13;;;;;;;;;;5093402;28;20032;-57
2021/10/30 13:36:04;;;;;;;10.53;4.13;;;;;;;;;;5093327;28;20494;-58
2021/10/30 13:38:30;;;;;;;19.63;4.53;;;;;;;;;;5088904;28;20016;-58
2021/10/30 13:41:00;;;;;;;11.00;4.53;;;;;;;;;;5088181;28;20580;-58
2021/10/30 13:43:27;;;;;;;11.03;3.67;;;;;;;;;;5088207;28;20028;-58
2021/10/30 13:45:54;;;;;;;5.00;2.70;;;;;;;;;;5087762;28;20028;-58
2021/10/30 13:48:21;;;;;;;9.20;3.03;;;;;;;;;;5092048;28;20031;-58
2021/10/30 13:50:48;;;;;;;6.83;3.37;;;;;;;;;;5093032;28;20356;-58
2021/10/30 13:53:15;;;;;;;8.90;2.80;;;;;;;;;;5093055;28;20112;-58
2021/10/30 13:55:41;;;;;;;4.37;2.10;;;;;;;;;;5093036;28;20060;-58
2021/10/30 13:58:08;;;;;;;4.93;2.60;;;;;;;;;;5092910;28;20039;-58
2021/10/30 14:00:35;;;;;;;6.43;2.97;;;;;;;;;;5088289;28;20050;-58
2021/10/30 14:03:02;;;;;;;5.67;3.07;;;;;;;;;;5087917;28;20024;-59
2021/10/30 14:05:29;;;;;;;6.27;3.10;;;;;;;;;;5087736;28;20107;-58
2021/10/30 14:07:56;;;;;;;6.87;2.60;;;;;;;;;;5087214;28;20032;-59
2021/10/30 14:10:23;;;;;;;6.43;3.20;;;;;;;;;;5091503;28;20086;-58
2021/10/30 14:12:50;;;;;;;9.50;3.80;;;;;;;;;;5092802;28;20471;-58
2021/10/30 14:15:18;;;;;;;10.07;4.07;;;;;;;;;;5092659;28;20040;-58
2021/10/30 14:17:45;;;;;;;7.43;3.17;;;;;;;;;;5092600;28;20024;-59
2021/10/30 14:20:12;;;;;;;6.43;3.20;;;;;;;;;;5091488;28;20043;-59
2021/10/30 14:22:39;;;;;;;5.67;3.30;;;;;;;;;;5088744;28;20035;-59
2021/10/30 14:25:07;;;;;;;5.60;2.93;;;;;;;;;;5087587;28;20031;-59
2021/10/30 14:27:35;;;;;;;9.87;3.17;;;;;;;;;;5087472;28;20046;-59
2021/10/30 14:30:02;;;;;;;9.20;3.57;;;;;;;;;;5085314;28;20090;-59
2021/10/30 14:32:29;;;;;;;5.67;3.50;;;;;;;;;;5089645;28;20130;-59
2021/10/30 14:34:57;;;;;;;9.30;3.83;;;;;;;;;;5092061;28;20326;-58
2021/10/30 14:37:24;;;;;;;7.13;4.30;;;;;;;;;;5091996;28;20042;-59
2021/10/30 14:39:51;;;;;;;8.10;3.80;;;;;;;;;;5092085;28;20028;-59
2021/10/30 14:42:17;;;;;;;6.90;3.40;;;;;;;;;;5091935;28;20028;-59
2021/10/30 14:44:45;;;;;;;7.80;3.50;;;;;;;;;;5087983;28;20024;-59
2021/10/30 14:47:14;;;;;;;12.73;3.90;;;;;;;;;;5086377;28;20051;-60